Terminal Aerodrome Forecast
Issued by NWS Topeka, KS

Home | Current Version | Previous Version | Text Only | Print | Product List | Glossary Off
Versions: 1 2 3 4 5 6 7 8 9 10 11 12 13 14

000
FTUS43 KTOP 131725
TAFTOP
TAF
KTOP 131725Z 1318/1418 31018G29KT P6SM SKC
     FM132300 33013KT P6SM FEW200
     FM140000 33008KT P6SM SCT035 BKN100=

USA.gov is the U.S. government's official web portal to all federal, state and local government web resources and services.